Time;durP1;ratioP1;P1;durP2;ratioP2;P2;SDS_P1;SDS_P2;PMS_P1;PMS_P2;Temp;Humidity;BMP_temperature;BMP_pressure;BME280_temperature;BME280_humidity;BME280_pressure;Samples;Min_cycle;Max_cycle;Signal;HPM_P1;HPM_P2
2024/03/15 00:00:58;;;;;;;6.43;5.70;;;13.30;98.60;;;;;;5012893;28;20045;-72
2024/03/15 00:03:26;;;;;;;4.72;3.58;;;13.30;98.60;;;;;;5012014;28;20038;-72
2024/03/15 00:05:53;;;;;;;7.22;6.53;;;13.30;98.80;;;;;;4995101;28;20472;-72
2024/03/15 00:08:20;;;;;;;7.30;4.60;;;13.20;98.80;;;;;;4995108;28;20093;-72
2024/03/15 00:10:47;;;;;;;6.97;5.10;;;13.20;98.90;;;;;;5011205;28;20041;-72
2024/03/15 00:13:14;;;;;;;6.07;5.38;;;13.10;99.00;;;;;;5027889;28;20078;-72
2024/03/15 00:15:41;;;;;;;6.63;6.03;;;13.00;99.10;;;;;;5012557;28;20042;-72
2024/03/15 00:18:08;;;;;;;8.43;5.22;;;12.90;99.20;;;;;;5011595;28;20529;-72
2024/03/15 00:20:35;;;;;;;4.65;4.20;;;12.80;99.40;;;;;;5011461;28;20057;-72
2024/03/15 00:23:06;;;;;;;4.18;3.78;;;12.80;99.60;;;;;;5012745;28;20041;-72
2024/03/15 00:25:33;;;;;;;5.32;4.82;;;12.70;99.80;;;;;;5011818;28;20045;-71
2024/03/15 00:28:02;;;;;;;6.20;4.45;;;12.50;99.90;;;;;;5009073;28;20061;-71
2024/03/15 00:30:29;;;;;;;7.45;5.00;;;12.40;99.90;;;;;;5012592;28;20034;-71
2024/03/15 00:32:57;;;;;;;6.60;5.50;;;12.30;99.90;;;;;;5011234;28;20129;-72
2024/03/15 00:35:24;;;;;;;8.95;5.30;;;12.20;99.90;;;;;;5011446;28;20053;-71
2024/03/15 00:37:51;;;;;;;6.70;4.18;;;12.10;99.90;;;;;;4994847;28;20042;-71
2024/03/15 00:40:18;;;;;;;4.82;3.55;;;12.00;99.90;;;;;;5012432;28;20050;-72
2024/03/15 00:42:45;;;;;;;4.43;3.95;;;11.90;99.90;;;;;;5011084;28;20084;-71
2024/03/15 00:45:12;;;;;;;6.75;4.43;;;11.90;99.90;;;;;;5012414;28;20050;-71
2024/03/15 00:47:40;;;;;;;7.20;3.97;;;11.80;99.90;;;;;;5011192;28;20108;-72
2024/03/15 00:50:07;;;;;;;6.57;3.97;;;11.80;99.90;;;;;;5027475;28;20092;-71
2024/03/15 00:52:34;;;;;;;7.90;5.22;;;11.70;99.90;;;;;;5011366;28;20058;-71
2024/03/15 00:55:02;;;;;;;6.82;4.25;;;11.70;99.90;;;;;;5012136;28;20041;-71
2024/03/15 00:57:29;;;;;;;4.18;3.55;;;11.70;99.90;;;;;;5012361;28;20125;-71
2024/03/15 00:59:56;;;;;;;6.72;5.57;;;11.60;99.90;;;;;;5010856;28;20878;-71
2024/03/15 01:02:23;;;;;;;6.82;5.07;;;11.60;99.90;;;;;;5011177;28;20084;-71
2024/03/15 01:04:52;;;;;;;6.95;4.82;;;11.60;99.90;;;;;;5011003;28;20042;-71
2024/03/15 01:07:20;;;;;;;8.85;6.45;;;11.60;99.90;;;;;;5027437;28;20380;-71
2024/03/15 01:09:47;;;;;;;8.18;4.88;;;11.60;99.90;;;;;;5012070;28;20045;-71
2024/03/15 01:12:16;;;;;;;5.07;4.57;;;11.50;99.90;;;;;;5027348;28;20422;-71
2024/03/15 01:14:45;;;;;;;7.10;4.82;;;11.50;99.90;;;;;;5010597;28;20038;-71
2024/03/15 01:17:15;;;;;;;5.47;4.72;;;11.60;99.90;;;;;;5027509;28;20407;-71
2024/03/15 01:19:45;;;;;;;5.75;4.95;;;11.60;99.90;;;;;;4994986;28;20049;-72
2024/03/15 01:22:11;;;;;;;3.85;2.95;;;11.60;99.90;;;;;;5014624;28;20077;-72
2024/03/15 01:24:38;;;;;;;4.97;3.78;;;11.60;99.90;;;;;;5015789;28;20136;-71
2024/03/15 01:27:06;;;;;;;9.43;6.13;;;11.70;99.90;;;;;;4997879;28;20145;-72
2024/03/15 01:29:33;;;;;;;6.05;5.43;;;11.70;99.90;;;;;;4998420;28;20104;-71
2024/03/15 01:32:00;;;;;;;10.27;6.38;;;11.70;99.90;;;;;;5015335;28;20042;-71
2024/03/15 01:34:27;;;;;;;5.63;4.03;;;11.80;99.90;;;;;;5030797;28;20104;-71
2024/03/15 01:36:54;;;;;;;4.88;4.40;;;11.80;99.90;;;;;;5015377;28;20044;-72
2024/03/15 01:39:21;;;;;;;7.07;4.70;;;11.80;99.90;;;;;;5015803;28;20117;-71
2024/03/15 01:41:48;;;;;;;5.85;3.92;;;11.80;99.90;;;;;;5014088;28;20064;-72
2024/03/15 01:44:16;;;;;;;6.32;4.63;;;11.90;99.90;;;;;;5014291;28;20072;-72
2024/03/15 01:46:43;;;;;;;6.72;4.72;;;11.90;99.90;;;;;;5014526;28;20193;-71
2024/03/15 01:49:10;;;;;;;11.05;5.10;;;12.00;99.90;;;;;;5030293;28;20080;-71
2024/03/15 01:51:37;;;;;;;6.28;5.68;;;11.90;99.90;;;;;;5015520;28;20042;-71
2024/03/15 01:54:05;;;;;;;8.43;5.47;;;12.00;99.90;;;;;;5014093;28;20109;-72
2024/03/15 01:56:32;;;;;;;5.82;5.20;;;12.00;99.90;;;;;;4997723;28;20454;-71
2024/03/15 01:58:59;;;;;;;6.45;5.13;;;12.00;99.90;;;;;;5013633;28;20046;-71
2024/03/15 02:01:26;;;;;;;7.22;5.47;;;12.00;99.90;;;;;;5015104;28;20092;-72
2024/03/15 02:03:56;;;;;;;5.45;4.15;;;11.90;99.90;;;;;;4997429;28;20045;-71
2024/03/15 02:06:23;;;;;;;5.82;4.75;;;11.90;99.90;;;;;;5014137;28;20072;-71
2024/03/15 02:08:54;;;;;;;7.43;5.13;;;11.90;99.90;;;;;;5014777;28;20050;-71
2024/03/15 02:11:22;;;;;;;7.65;5.10;;;11.90;99.90;;;;;;5014875;28;20042;-72
2024/03/15 02:13:49;;;;;;;6.18;4.03;;;11.80;99.90;;;;;;5013584;28;20120;-72
2024/03/15 02:16:17;;;;;;;6.47;4.80;;;11.80;99.90;;;;;;5014877;28;20038;-72
2024/03/15 02:18:44;;;;;;;5.38;3.60;;;11.80;99.90;;;;;;5013642;28;20048;-72
2024/03/15 02:21:11;;;;;;;6.22;4.82;;;11.80;99.90;;;;;;5029782;28;20048;-72
2024/03/15 02:23:39;;;;;;;9.52;6.65;;;11.80;99.90;;;;;;5014679;28;20042;-71
2024/03/15 02:26:07;;;;;;;7.28;5.03;;;11.80;99.90;;;;;;5013200;28;20069;-71
2024/03/15 02:28:34;;;;;;;6.78;4.65;;;11.90;99.90;;;;;;4976090;28;20058;-71
2024/03/15 02:31:01;;;;;;;8.82;5.10;;;11.80;99.90;;;;;;5012656;28;20044;-72
2024/03/15 02:33:29;;;;;;;8.02;6.18;;;12.00;99.90;;;;;;5012689;28;20088;-71
2024/03/15 02:35:56;;;;;;;6.65;4.43;;;12.00;99.90;;;;;;5011849;28;20084;-72
2024/03/15 02:38:26;;;;;;;5.13;4.13;;;12.20;99.90;;;;;;5014198;28;20074;-71
2024/03/15 02:40:53;;;;;;;7.07;6.07;;;12.10;99.90;;;;;;5014180;28;20045;-72
2024/03/15 02:43:21;;;;;;;7.70;5.93;;;12.20;99.90;;;;;;5014213;28;20403;-71
2024/03/15 02:45:48;;;;;;;6.38;5.28;;;12.30;99.90;;;;;;5014249;28;20041;-71
2024/03/15 02:48:15;;;;;;;7.25;5.53;;;12.30;99.90;;;;;;5014019;28;20057;-72
2024/03/15 02:50:42;;;;;;;7.70;5.30;;;12.40;99.90;;;;;;5014037;28;20045;-71
2024/03/15 02:53:11;;;;;;;6.78;3.92;;;12.50;99.90;;;;;;4996443;28;20136;-71
2024/03/15 02:55:38;;;;;;;5.45;4.93;;;12.50;99.90;;;;;;5014111;28;20034;-71
2024/03/15 02:58:07;;;;;;;5.95;4.82;;;12.50;99.90;;;;;;5012740;28;20048;-71
2024/03/15 03:00:34;;;;;;;7.47;5.90;;;12.50;99.90;;;;;;5012989;28;20479;-71
2024/03/15 03:03:02;;;;;;;6.00;4.40;;;12.50;99.90;;;;;;5012464;28;20184;-72
2024/03/15 03:05:30;;;;;;;5.65;4.93;;;12.50;99.90;;;;;;5014108;28;20447;-71
2024/03/15 03:07:58;;;;;;;7.22;5.53;;;12.50;99.90;;;;;;5012302;28;20472;-72
2024/03/15 03:10:27;;;;;;;5.20;4.25;;;12.50;99.90;;;;;;5013721;28;20129;-71
2024/03/15 03:12:54;;;;;;;5.57;4.75;;;12.50;99.90;;;;;;5013633;28;20533;-72
2024/03/15 03:15:21;;;;;;;7.00;6.30;;;12.50;99.90;;;;;;5012293;28;20046;-71
2024/03/15 03:17:48;;;;;;;6.85;5.40;;;12.50;99.90;;;;;;5012494;28;20038;-72
2024/03/15 03:20:18;;;;;;;9.40;6.07;;;12.50;99.90;;;;;;5012183;28;20046;-71
2024/03/15 03:22:48;;;;;;;8.77;6.53;;;12.50;99.90;;;;;;5012267;28;20104;-71
2024/03/15 03:25:15;;;;;;;7.70;5.07;;;12.50;99.90;;;;;;4996201;28;20096;-71
2024/03/15 03:27:42;;;;;;;10.25;4.88;;;12.40;99.90;;;;;;5013379;28;20132;-71
2024/03/15 03:30:09;;;;;;;7.72;5.70;;;12.50;99.90;;;;;;5012032;28;20052;-71
2024/03/15 03:32:37;;;;;;;5.97;5.15;;;12.40;99.90;;;;;;5010534;28;20038;-71
2024/03/15 03:35:05;;;;;;;6.15;5.18;;;12.40;99.90;;;;;;5013077;28;20487;-72
2024/03/15 03:37:32;;;;;;;5.95;4.13;;;12.40;99.90;;;;;;5043885;28;20077;-71
2024/03/15 03:40:00;;;;;;;6.25;4.50;;;12.40;99.90;;;;;;5013518;28;20046;-71
2024/03/15 03:42:28;;;;;;;7.80;4.85;;;12.40;99.90;;;;;;5027998;28;20056;-71
2024/03/15 03:44:55;;;;;;;6.10;4.72;;;12.30;99.90;;;;;;5013023;28;20474;-71
2024/03/15 03:47:22;;;;;;;9.18;6.35;;;12.30;99.90;;;;;;5011752;28;20065;-71
2024/03/15 03:49:50;;;;;;;6.30;4.22;;;12.30;99.90;;;;;;5013080;28;20045;-71
2024/03/15 03:52:17;;;;;;;6.40;5.75;;;12.30;99.90;;;;;;5027935;28;20046;-71
2024/03/15 03:54:44;;;;;;;7.15;6.18;;;12.30;99.90;;;;;;5044679;28;20073;-71
2024/03/15 03:57:23;;;;;;;9.63;6.55;;;12.30;99.90;;;;;;5012955;28;20046;-72
2024/03/15 04:00:07;;;;;;;7.65;5.03;;;12.20;99.90;;;;;;5026437;28;20038;-72
2024/03/15 04:02:38;;;;;;;7.78;5.63;;;12.20;99.90;;;;;;5011557;28;20140;-72
2024/03/15 04:05:06;;;;;;;9.73;5.90;;;12.10;99.90;;;;;;5011908;28;20057;-72
2024/03/15 04:07:33;;;;;;;7.47;5.80;;;12.10;99.90;;;;;;5012587;28;20128;-72
2024/03/15 04:10:00;;;;;;;6.35;5.03;;;12.00;99.90;;;;;;5013154;28;20107;-72
2024/03/15 04:12:27;;;;;;;7.80;6.55;;;12.00;99.90;;;;;;5011698;28;20451;-72
2024/03/15 04:14:54;;;;;;;9.23;5.07;;;12.00;99.90;;;;;;5012826;28;20048;-72
2024/03/15 04:17:23;;;;;;;8.07;6.03;;;11.90;99.90;;;;;;5012665;28;20502;-72
2024/03/15 04:19:50;;;;;;;6.28;4.05;;;11.90;99.90;;;;;;5011599;28;20050;-72
2024/03/15 04:22:17;;;;;;;4.03;3.15;;;11.90;99.90;;;;;;5011275;28;20084;-73
2024/03/15 04:24:44;;;;;;;8.52;6.18;;;11.90;99.90;;;;;;5011563;28;20092;-72
2024/03/15 04:27:11;;;;;;;9.18;6.82;;;11.90;99.90;;;;;;5011036;28;20491;-72
2024/03/15 04:29:38;;;;;;;9.30;6.78;;;11.90;99.90;;;;;;4995052;28;20042;-72
2024/03/15 04:32:08;;;;;;;5.50;4.63;;;11.90;99.90;;;;;;4995072;28;20141;-72
2024/03/15 04:34:37;;;;;;;7.68;6.07;;;11.90;99.90;;;;;;4995621;28;20058;-72
2024/03/15 04:37:04;;;;;;;5.68;4.60;;;11.90;99.90;;;;;;5011258;28;20045;-72
2024/03/15 04:39:32;;;;;;;9.32;7.22;;;11.90;99.90;;;;;;5011010;28;20403;-72
2024/03/15 04:41:59;;;;;;;8.23;7.00;;;11.90;99.90;;;;;;5011338;28;20045;-72
2024/03/15 04:44:26;;;;;;;9.45;6.65;;;11.80;99.90;;;;;;5011005;28;20085;-73
2024/03/15 04:46:54;;;;;;;6.78;4.40;;;11.90;99.90;;;;;;5012460;28;20042;-72
2024/03/15 04:49:21;;;;;;;8.27;5.65;;;11.80;99.90;;;;;;5011338;28;20128;-72
2024/03/15 04:51:51;;;;;;;4.90;4.40;;;11.80;99.90;;;;;;5012439;28;20069;-73
2024/03/15 04:54:18;;;;;;;9.68;7.18;;;11.70;99.90;;;;;;4995221;28;20049;-72
2024/03/15 04:56:46;;;;;;;6.70;4.80;;;11.70;99.90;;;;;;5014464;28;20112;-72
2024/03/15 04:59:13;;;;;;;9.05;7.03;;;11.60;99.90;;;;;;4998609;28;20050;-72
2024/03/15 05:01:40;;;;;;;7.85;6.22;;;11.60;99.90;;;;;;5015153;28;20042;-72
2024/03/15 05:04:08;;;;;;;12.02;6.47;;;11.60;99.90;;;;;;5015098;28;20069;-73
2024/03/15 05:06:36;;;;;;;6.60;5.03;;;11.50;99.90;;;;;;5014740;28;20514;-73
2024/03/15 05:09:05;;;;;;;9.15;7.78;;;11.50;99.90;;;;;;5015021;28;20766;-73
2024/03/15 05:11:39;;;;;;;6.35;4.00;;;11.50;99.90;;;;;;4999100;28;20046;-74
2024/03/15 05:14:06;;;;;;;11.02;7.90;;;11.40;99.90;;;;;;5016066;28;20038;-73
2024/03/15 05:16:33;;;;;;;9.88;7.80;;;11.40;99.90;;;;;;4982208;28;20500;-73
2024/03/15 05:19:01;;;;;;;10.88;9.98;;;11.40;99.90;;;;;;5015052;28;20489;-73
2024/03/15 05:21:28;;;;;;;11.43;10.23;;;11.30;99.90;;;;;;5015953;28;20052;-73
2024/03/15 05:23:55;;;;;;;11.23;7.70;;;11.30;99.90;;;;;;5047799;28;20045;-74
2024/03/15 05:26:22;;;;;;;8.23;5.63;;;11.30;99.90;;;;;;5014406;28;20076;-72
2024/03/15 05:28:49;;;;;;;10.38;7.75;;;11.50;99.90;;;;;;5014674;28;20518;-73
2024/03/15 05:31:23;;;;;;;8.68;7.53;;;11.30;99.90;;;;;;5015495;28;20050;-73
2024/03/15 05:33:50;;;;;;;11.18;8.85;;;11.30;99.90;;;;;;5016028;28;20544;-73
2024/03/15 05:36:18;;;;;;;11.40;6.70;;;11.30;99.90;;;;;;5014238;28;20038;-73
2024/03/15 05:38:45;;;;;;;7.60;6.55;;;11.30;99.90;;;;;;5015680;28;20046;-73
2024/03/15 05:41:12;;;;;;;7.32;6.15;;;11.30;99.90;;;;;;5014367;28;20100;-73
2024/03/15 05:43:39;;;;;;;12.05;9.70;;;11.30;99.90;;;;;;5015616;28;20470;-73
2024/03/15 05:46:06;;;;;;;8.95;6.22;;;11.30;99.90;;;;;;5015678;28;20050;-72
2024/03/15 05:48:33;;;;;;;12.52;7.95;;;11.30;99.90;;;;;;5013966;28;20042;-73
2024/03/15 05:51:02;;;;;;;11.20;7.03;;;11.30;99.90;;;;;;5013853;28;20045;-73
2024/03/15 05:53:29;;;;;;;8.23;7.15;;;11.30;99.90;;;;;;5015273;28;20050;-73
2024/03/15 05:55:56;;;;;;;9.50;8.60;;;11.30;99.90;;;;;;5015189;28;20391;-73
2024/03/15 05:58:23;;;;;;;8.98;7.30;;;11.40;99.90;;;;;;5015028;28;20068;-73
2024/03/15 06:00:50;;;;;;;8.95;5.43;;;11.30;99.90;;;;;;5012401;28;20067;-72
2024/03/15 06:03:17;;;;;;;11.63;7.60;;;11.30;99.90;;;;;;5014920;28;20050;-72
2024/03/15 06:05:44;;;;;;;9.05;7.95;;;11.30;99.90;;;;;;5013321;28;20045;-73
2024/03/15 06:08:11;;;;;;;9.63;7.35;;;11.30;99.90;;;;;;5046713;28;20054;-73
2024/03/15 06:10:38;;;;;;;10.07;7.32;;;11.30;99.90;;;;;;5014734;28;20112;-73
2024/03/15 06:13:05;;;;;;;8.73;6.85;;;11.40;99.90;;;;;;5046575;28;20479;-73
2024/03/15 06:15:32;;;;;;;11.45;8.80;;;11.40;99.90;;;;;;5013337;28;20053;-74
2024/03/15 06:18:00;;;;;;;9.88;8.60;;;11.40;99.90;;;;;;5013979;28;20042;-74
2024/03/15 06:20:27;;;;;;;9.05;6.05;;;11.40;99.90;;;;;;5013734;28;20034;-73
2024/03/15 06:22:54;;;;;;;9.65;6.68;;;11.40;99.90;;;;;;5014465;28;20076;-73
2024/03/15 06:25:21;;;;;;;10.65;7.85;;;11.50;99.90;;;;;;5014361;28;20125;-73
2024/03/15 06:27:48;;;;;;;11.85;6.47;;;11.50;99.90;;;;;;5045966;28;20057;-73
2024/03/15 06:30:16;;;;;;;7.72;5.93;;;11.50;99.90;;;;;;5013334;28;20054;-73
2024/03/15 06:32:43;;;;;;;13.40;8.35;;;11.60;99.90;;;;;;5045481;28;20112;-73
2024/03/15 06:35:20;;;;;;;10.43;9.23;;;11.60;99.90;;;;;;5045977;28;20038;-73
2024/03/15 06:37:53;;;;;;;15.32;11.82;;;11.60;99.90;;;;;;5011763;28;20139;-73
2024/03/15 06:40:30;;;;;;;12.00;7.97;;;11.60;99.90;;;;;;5014478;28;20133;-73
2024/03/15 06:48:22;;;;;;;10.77;8.93;;;11.70;99.90;;;;;;5013081;28;20053;-72
2024/03/15 06:50:50;;;;;;;10.85;8.57;;;11.70;99.90;;;;;;5012820;28;20115;-72
2024/03/15 06:53:20;;;;;;;8.57;7.40;;;11.70;99.90;;;;;;5013210;28;20041;-73
2024/03/15 06:55:48;;;;;;;11.05;8.55;;;11.80;99.90;;;;;;5012707;28;20404;-73
2024/03/15 06:58:15;;;;;;;13.00;8.55;;;11.80;99.90;;;;;;5013116;28;20560;-73
2024/03/15 07:00:49;;;;;;;9.05;7.40;;;11.90;99.90;;;;;;5028343;28;20118;-73
2024/03/15 07:03:16;;;;;;;10.88;7.68;;;11.90;99.90;;;;;;5029188;28;20402;-73
2024/03/15 07:05:43;;;;;;;15.20;9.93;;;11.80;99.90;;;;;;5012339;28;20133;-73
2024/03/15 07:08:14;;;;;;;11.57;9.50;;;11.80;99.90;;;;;;5013851;28;20050;-73
2024/03/15 07:10:41;;;;;;;10.18;8.48;;;11.90;99.90;;;;;;5012334;28;20057;-73
2024/03/15 07:13:09;;;;;;;8.85;6.97;;;11.90;99.90;;;;;;5012661;28;20085;-73
2024/03/15 07:15:37;;;;;;;13.02;9.15;;;11.90;99.90;;;;;;5012457;28;20441;-73
2024/03/15 07:18:04;;;;;;;10.27;8.30;;;12.00;99.90;;;;;;5011365;28;20042;-73
2024/03/15 07:20:32;;;;;;;11.00;9.00;;;12.00;99.90;;;;;;5013791;28;20037;-73
2024/03/15 07:22:59;;;;;;;8.93;7.65;;;12.10;99.90;;;;;;5013727;28;20091;-73
2024/03/15 07:25:26;;;;;;;9.68;7.50;;;12.20;99.90;;;;;;5044916;28;20046;-73
2024/03/15 07:27:56;;;;;;;9.60;8.00;;;12.20;99.90;;;;;;5010952;28;20054;-73
2024/03/15 07:30:24;;;;;;;8.32;7.32;;;12.20;99.90;;;;;;5028243;28;20042;-73
2024/03/15 07:32:51;;;;;;;11.05;7.30;;;12.20;99.90;;;;;;5013192;28;20096;-73
2024/03/15 07:35:18;;;;;;;10.82;8.40;;;12.20;99.90;;;;;;5028288;28;20061;-73
2024/03/15 07:37:47;;;;;;;8.10;7.38;;;12.20;99.90;;;;;;5028454;28;20037;-73
2024/03/15 07:40:14;;;;;;;13.93;8.98;;;12.20;99.90;;;;;;5013366;28;20050;-73
2024/03/15 07:42:42;;;;;;;11.73;7.15;;;12.20;99.90;;;;;;5013050;28;20042;-73
2024/03/15 07:45:10;;;;;;;9.70;7.40;;;12.30;99.90;;;;;;5028297;28;20058;-73
2024/03/15 07:47:38;;;;;;;11.93;10.68;;;12.30;99.90;;;;;;5012920;28;20458;-73
2024/03/15 07:50:07;;;;;;;11.85;9.07;;;12.40;99.90;;;;;;5028381;28;20068;-73
2024/03/15 07:52:34;;;;;;;9.25;7.97;;;12.40;99.90;;;;;;5011599;28;20042;-73
2024/03/15 07:55:03;;;;;;;10.60;8.48;;;12.50;99.90;;;;;;5012977;28;20034;-73
2024/03/15 07:57:30;;;;;;;12.45;9.30;;;12.50;99.90;;;;;;5011649;28;20046;-73
2024/03/15 07:59:58;;;;;;;11.10;8.77;;;12.60;99.90;;;;;;5044261;28;20435;-73
2024/03/15 08:02:25;;;;;;;10.45;9.38;;;12.60;99.90;;;;;;5027989;28;20128;-73
2024/03/15 08:04:52;;;;;;;8.73;7.72;;;12.60;99.90;;;;;;5011324;28;20061;-73
2024/03/15 08:07:20;;;;;;;12.90;9.77;;;12.60;99.90;;;;;;5011538;28;20108;-73
2024/03/15 08:09:47;;;;;;;9.25;8.40;;;12.70;99.90;;;;;;5011345;28;20050;-73
2024/03/15 08:12:14;;;;;;;12.88;9.88;;;12.80;99.90;;;;;;5027890;28;20628;-73
2024/03/15 08:14:42;;;;;;;9.48;8.40;;;12.90;99.90;;;;;;5012564;28;20394;-73
2024/03/15 08:17:10;;;;;;;9.02;7.65;;;13.00;99.90;;;;;;5011643;28;20061;-73
2024/03/15 08:19:39;;;;;;;11.98;7.47;;;13.20;99.90;;;;;;5012837;28;20045;-73
2024/03/15 08:22:08;;;;;;;7.15;6.25;;;13.40;99.90;;;;;;5012972;28;20042;-73
2024/03/15 08:24:37;;;;;;;8.68;7.88;;;13.50;99.90;;;;;;5027323;28;20070;-73
2024/03/15 08:27:06;;;;;;;8.07;7.05;;;13.50;99.90;;;;;;5012534;28;20041;-73
2024/03/15 08:29:33;;;;;;;11.95;10.65;;;13.40;99.90;;;;;;5043223;28;20400;-73
2024/03/15 08:32:00;;;;;;;11.43;7.30;;;13.40;99.90;;;;;;5011245;28;20053;-73
2024/03/15 08:34:28;;;;;;;8.93;8.02;;;13.30;99.90;;;;;;5012717;28;20049;-73
2024/03/15 08:36:56;;;;;;;11.18;10.00;;;13.30;99.90;;;;;;5027325;28;20042;-73
2024/03/15 08:39:24;;;;;;;8.00;7.03;;;13.20;99.90;;;;;;5011493;28;20061;-73
2024/03/15 08:41:51;;;;;;;9.98;8.95;;;13.30;99.90;;;;;;5027377;28;20129;-73
2024/03/15 08:44:19;;;;;;;10.77;9.52;;;13.30;99.90;;;;;;5011308;28;20156;-73
2024/03/15 08:46:46;;;;;;;9.82;8.10;;;13.30;99.90;;;;;;5027187;28;20133;-73
2024/03/15 08:49:15;;;;;;;12.50;10.02;;;13.40;99.90;;;;;;5012398;28;20088;-73
2024/03/15 08:51:44;;;;;;;8.15;6.97;;;13.40;99.90;;;;;;5012324;28;20495;-73
2024/03/15 08:54:12;;;;;;;7.70;6.90;;;13.50;99.90;;;;;;5012309;28;20038;-73
2024/03/15 08:56:39;;;;;;;6.82;5.82;;;13.50;99.90;;;;;;5027649;28;20049;-73
2024/03/15 08:59:06;;;;;;;10.95;9.93;;;13.60;99.90;;;;;;5010853;28;20104;-73
2024/03/15 09:01:34;;;;;;;8.07;7.20;;;13.60;99.90;;;;;;5011046;28;20042;-73
2024/03/15 09:04:05;;;;;;;7.28;5.75;;;13.80;99.90;;;;;;5026839;28;20055;-73
2024/03/15 09:06:34;;;;;;;9.18;8.07;;;14.20;99.90;;;;;;5043072;28;20049;-73
2024/03/15 09:09:10;;;;;;;8.48;5.82;;;14.40;99.90;;;;;;5010480;28;20141;-73
2024/03/15 09:11:38;;;;;;;7.10;6.40;;;14.50;99.90;;;;;;5026113;28;20050;-73
2024/03/15 09:14:08;;;;;;;7.05;6.35;;;14.50;99.90;;;;;;5012003;28;20038;-73
2024/03/15 09:16:35;;;;;;;9.50;6.43;;;14.40;99.90;;;;;;5026639;28;20515;-73
2024/03/15 09:19:02;;;;;;;8.85;5.25;;;14.30;99.90;;;;;;5010634;28;20060;-73
2024/03/15 09:21:30;;;;;;;7.47;5.65;;;14.30;99.90;;;;;;5010831;28;20072;-73
2024/03/15 09:23:57;;;;;;;9.35;5.60;;;14.30;99.90;;;;;;5011769;28;20049;-73
2024/03/15 09:26:24;;;;;;;7.40;6.07;;;14.30;99.90;;;;;;5010720;28;20495;-72
2024/03/15 09:28:51;;;;;;;8.60;5.95;;;14.30;99.90;;;;;;5027091;28;20056;-72
2024/03/15 09:31:24;;;;;;;7.95;6.80;;;14.30;99.90;;;;;;5027253;28;20074;-72
2024/03/15 09:34:05;;;;;;;9.25;6.13;;;14.30;99.90;;;;;;5010498;28;20209;-73
2024/03/15 09:36:33;;;;;;;9.48;4.82;;;14.20;99.90;;;;;;5010749;28;20127;-73
2024/03/15 09:39:01;;;;;;;8.77;5.18;;;14.20;99.90;;;;;;5010341;28;20048;-71
2024/03/15 09:41:29;;;;;;;8.32;7.13;;;14.40;99.90;;;;;;5028331;28;20057;-72
2024/03/15 09:43:56;;;;;;;6.47;5.88;;;14.50;99.90;;;;;;5047096;28;20050;-72
2024/03/15 09:46:24;;;;;;;9.05;6.15;;;14.60;99.90;;;;;;5015418;28;20050;-72
2024/03/15 09:48:54;;;;;;;8.18;7.47;;;14.70;99.90;;;;;;5046868;28;20398;-72
2024/03/15 09:51:22;;;;;;;10.70;8.60;;;14.80;99.90;;;;;;5015297;28;20045;-72
2024/03/15 09:53:49;;;;;;;9.50;7.50;;;14.80;99.90;;;;;;5013820;28;20623;-72
2024/03/15 09:56:18;;;;;;;8.50;5.78;;;14.80;99.90;;;;;;5046995;28;20111;-72
2024/03/15 09:58:51;;;;;;;10.65;5.88;;;14.60;99.90;;;;;;5015172;28;20092;-72
2024/03/15 10:01:18;;;;;;;6.60;6.00;;;14.40;99.90;;;;;;5013670;28;20085;-71
2024/03/15 10:03:48;;;;;;;9.27;6.47;;;14.20;99.90;;;;;;5029495;28;20088;-72
2024/03/15 10:06:17;;;;;;;7.00;4.53;;;14.10;99.90;;;;;;5012759;28;20053;-72
2024/03/15 10:08:44;;;;;;;6.78;5.28;;;14.10;99.90;;;;;;5014297;28;20063;-72
2024/03/15 10:11:11;;;;;;;7.43;6.32;;;14.20;99.90;;;;;;5014319;28;20404;-72
2024/03/15 10:13:38;;;;;;;9.23;6.57;;;14.20;99.90;;;;;;5029444;28;20048;-71
2024/03/15 10:16:09;;;;;;;4.90;4.00;;;14.10;99.90;;;;;;5046592;28;20033;-72
2024/03/15 10:18:39;;;;;;;6.03;5.43;;;14.10;99.90;;;;;;5015130;28;20034;-71
2024/03/15 10:21:07;;;;;;;5.90;4.80;;;14.20;99.90;;;;;;5046342;28;20038;-72
2024/03/15 10:23:34;;;;;;;7.20;5.55;;;14.20;99.90;;;;;;5014754;28;20046;-72
2024/03/15 10:26:01;;;;;;;7.35;6.30;;;14.30;99.90;;;;;;5027474;28;20431;-71
2024/03/15 10:28:28;;;;;;;5.72;4.05;;;14.40;99.90;;;;;;5026892;28;20054;-72
2024/03/15 10:30:56;;;;;;;7.25;3.53;;;14.60;99.90;;;;;;5011383;28;20057;-72
2024/03/15 10:33:23;;;;;;;6.90;4.63;;;14.80;99.90;;;;;;5012403;28;20042;-71
2024/03/15 10:35:51;;;;;;;5.65;3.65;;;14.90;99.90;;;;;;5013989;28;20381;-71
2024/03/15 10:38:18;;;;;;;4.32;3.50;;;15.00;99.90;;;;;;4996498;28;20045;-72
2024/03/15 10:40:47;;;;;;;4.70;1.95;;;15.00;99.90;;;;;;5013120;28;20046;-71
2024/03/15 10:43:14;;;;;;;6.25;3.72;;;15.00;99.90;;;;;;5014229;28;20365;-71
2024/03/15 10:45:43;;;;;;;4.88;3.00;;;15.00;99.90;;;;;;5014474;28;20527;-72
2024/03/15 10:48:12;;;;;;;4.88;2.28;;;15.00;99.90;;;;;;5012981;28;20132;-72
2024/03/15 10:50:42;;;;;;;3.45;2.17;;;15.00;99.90;;;;;;5013034;28;20052;-72
2024/03/15 10:53:15;;;;;;;5.63;2.83;;;15.00;99.90;;;;;;5013865;28;20046;-71
2024/03/15 10:55:42;;;;;;;4.68;2.63;;;15.00;99.90;;;;;;5012960;28;20042;-72
2024/03/15 10:58:11;;;;;;;6.20;2.78;;;15.00;99.90;;;;;;5012652;28;20042;-71
2024/03/15 11:00:39;;;;;;;4.18;3.08;;;15.10;99.90;;;;;;5014102;28;20048;-71
2024/03/15 11:03:24;;;;;;;4.07;2.10;;;15.10;99.90;;;;;;5012606;28;20499;-72
2024/03/15 11:05:52;;;;;;;4.90;2.95;;;15.30;99.90;;;;;;5012630;28;20084;-72
2024/03/15 11:08:24;;;;;;;4.30;1.98;;;15.30;99.90;;;;;;5012465;28;20077;-71
2024/03/15 11:10:55;;;;;;;8.80;2.63;;;15.30;99.90;;;;;;5012686;28;20052;-71
2024/03/15 11:13:24;;;;;;;8.77;2.85;;;15.40;99.90;;;;;;4995981;28;20464;-71
2024/03/15 11:15:52;;;;;;;3.03;2.72;;;15.20;99.90;;;;;;5013780;28;20054;-71
2024/03/15 11:18:20;;;;;;;4.18;2.92;;;15.20;99.90;;;;;;5012334;28;20125;-72
2024/03/15 11:20:56;;;;;;;9.02;3.42;;;15.20;99.90;;;;;;5012263;28;20099;-71
2024/03/15 11:23:25;;;;;;;5.07;3.60;;;15.20;99.90;;;;;;5013492;28;20046;-71
2024/03/15 11:25:58;;;;;;;4.43;2.75;;;15.30;99.90;;;;;;5013598;28;20050;-71
2024/03/15 11:28:28;;;;;;;3.58;2.78;;;15.30;99.90;;;;;;5013397;28;20054;-71
2024/03/15 11:30:56;;;;;;;4.82;2.63;;;15.30;99.90;;;;;;5012350;28;20562;-71
2024/03/15 11:33:28;;;;;;;7.20;3.30;;;15.40;99.90;;;;;;5012083;28;20042;-71
2024/03/15 11:35:57;;;;;;;6.38;3.88;;;15.40;99.90;;;;;;5012292;28;20480;-71
2024/03/15 11:38:26;;;;;;;6.97;4.35;;;15.40;99.90;;;;;;5011994;28;20038;-71
2024/03/15 11:40:56;;;;;;;8.35;2.45;;;15.40;99.90;;;;;;5012139;28;20502;-71
2024/03/15 11:43:22;;;;;;;3.72;2.47;;;15.50;99.90;;;;;;5011712;28;20056;-71
2024/03/15 11:45:50;;;;;;;3.90;2.90;;;15.90;99.90;;;;;;5013169;28;20578;-71
2024/03/15 11:48:20;;;;;;;6.97;2.55;;;16.80;99.50;;;;;;5011647;28;20046;-71
2024/03/15 11:50:52;;;;;;;3.65;2.50;;;17.70;98.20;;;;;;5013053;28;20050;-72
2024/03/15 11:53:20;;;;;;;3.75;2.10;;;18.30;96.60;;;;;;5011722;28;20050;-71
2024/03/15 11:55:49;;;;;;;3.30;2.53;;;18.50;95.70;;;;;;5011977;28;20048;-71
2024/03/15 11:58:22;;;;;;;7.97;2.67;;;18.50;95.70;;;;;;5011478;28;20458;-72
2024/03/15 12:00:51;;;;;;;5.32;3.28;;;18.30;95.00;;;;;;5011879;28;20046;-72
2024/03/15 12:03:21;;;;;;;4.93;2.58;;;17.80;94.40;;;;;;5011593;28;20104;-71
2024/03/15 12:05:48;;;;;;;5.47;2.25;;;17.30;94.80;;;;;;5011574;28;20483;-72
2024/03/15 12:08:21;;;;;;;8.23;2.65;;;17.10;95.80;;;;;;4995331;28;20050;-71
2024/03/15 12:10:49;;;;;;;4.10;2.22;;;16.80;95.10;;;;;;5011706;28;20049;-71
2024/03/15 12:13:21;;;;;;;6.15;1.92;;;16.60;95.80;;;;;;5011433;28;20045;-71
2024/03/15 12:15:50;;;;;;;4.00;2.65;;;16.40;96.30;;;;;;5011890;28;20056;-71
2024/03/15 12:18:23;;;;;;;6.72;3.60;;;16.30;97.20;;;;;;5012883;28;20048;-71
2024/03/15 12:20:51;;;;;;;5.10;3.58;;;16.10;97.50;;;;;;5011526;28;20050;-71
2024/03/15 12:23:20;;;;;;;3.00;2.80;;;15.80;97.50;;;;;;5012447;28;20368;-71
2024/03/15 12:25:48;;;;;;;5.45;2.88;;;15.60;98.90;;;;;;5011555;28;20377;-71
2024/03/15 12:28:17;;;;;;;4.72;2.95;;;15.40;99.80;;;;;;5011145;28;20100;-71
2024/03/15 12:30:45;;;;;;;4.32;2.53;;;15.10;99.90;;;;;;5012594;28;20460;-71
2024/03/15 12:33:13;;;;;;;4.63;2.75;;;15.00;99.90;;;;;;5012469;28;20037;-71
2024/03/15 12:35:43;;;;;;;5.35;2.55;;;14.90;99.90;;;;;;5012502;28;20045;-71
2024/03/15 12:38:18;;;;;;;4.30;3.55;;;15.00;99.80;;;;;;5011287;28;20407;-71
2024/03/15 12:40:45;;;;;;;6.38;3.92;;;15.10;99.90;;;;;;5011376;28;20042;-71
2024/03/15 12:43:12;;;;;;;7.10;2.70;;;15.00;99.90;;;;;;5010907;28;20060;-71
2024/03/15 12:45:43;;;;;;;5.55;3.00;;;15.00;99.90;;;;;;5011351;28;20053;-71
2024/03/15 12:48:11;;;;;;;6.38;3.88;;;15.00;99.90;;;;;;5012449;28;20073;-71
2024/03/15 12:50:39;;;;;;;6.18;2.90;;;15.10;99.90;;;;;;5011313;28;20224;-71
2024/03/15 12:53:16;;;;;;;4.85;4.03;;;15.10;99.90;;;;;;5011396;28;20140;-71
2024/03/15 12:55:43;;;;;;;6.85;3.83;;;15.10;99.90;;;;;;5011385;28;20496;-71